createdAt,value
2022-10-01T00:02:11.393Z,96.11
2022-10-01T00:04:39.590Z,95.79
2022-10-01T00:07:10.767Z,96.02
2022-10-01T00:09:38.689Z,95.21
2022-10-01T00:12:06.914Z,95.13
2022-10-01T00:14:39.069Z,95.86
2022-10-01T00:17:06.973Z,95.58
2022-10-01T00:19:37.348Z,95.79
2022-10-01T00:22:06.168Z,95.80
2022-10-01T00:24:33.878Z,95.98
2022-10-01T00:27:02.983Z,96.00
2022-10-01T00:29:31.735Z,95.60
2022-10-01T00:32:01.400Z,95.50
2022-10-01T00:34:29.205Z,94.87
2022-10-01T00:36:56.951Z,94.41
2022-10-01T00:39:24.740Z,94.55
2022-10-01T00:41:52.629Z,94.74
2022-10-01T00:44:35.105Z,94.71
2022-10-01T00:47:10.473Z,94.41
2022-10-01T00:49:41.228Z,94.59
2022-10-01T00:52:13.794Z,94.56
2022-10-01T00:54:45.724Z,95.12
2022-10-01T00:57:17.726Z,95.43
2022-10-01T00:59:47.231Z,95.28
2022-10-01T01:02:16.443Z,95.37
2022-10-01T01:04:44.717Z,95.44
2022-10-01T01:07:12.846Z,94.89
2022-10-01T01:09:45.429Z,94.68
2022-10-01T01:12:25.803Z,95.13
2022-10-01T01:15:04.915Z,95.25
2022-10-01T01:17:40.941Z,94.86
2022-10-01T01:20:27.390Z,95.01
2022-10-01T01:23:07.079Z,95.48
2022-10-01T01:25:41.289Z,95.13
2022-10-01T01:28:20.924Z,95.20
2022-10-01T01:30:51.162Z,95.42
2022-10-01T01:33:21.963Z,94.83
2022-10-01T01:35:53.983Z,95.25
2022-10-01T01:38:28.137Z,95.15
2022-10-01T01:40:59.572Z,95.67
2022-10-01T01:43:33.110Z,95.38
2022-10-01T01:46:03.345Z,95.53
2022-10-01T01:48:36.384Z,95.64
2022-10-01T01:51:09.757Z,95.48
2022-10-01T01:53:37.601Z,95.41
2022-10-01T01:56:06.584Z,94.97
2022-10-01T01:58:36.790Z,95.37
2022-10-01T02:01:05.418Z,95.32
2022-10-01T02:03:35.905Z,95.18
2022-10-01T02:06:21.215Z,95.40
2022-10-01T02:08:52.433Z,95.84
2022-10-01T02:11:26.796Z,95.28
2022-10-01T02:14:10.787Z,95.59
2022-10-01T02:16:49.125Z,95.97
2022-10-01T02:19:24.995Z,96.18
2022-10-01T02:21:59.725Z,95.67
2022-10-01T02:24:38.583Z,95.28
2022-10-01T02:27:12.369Z,95.23
2022-10-01T02:29:44.418Z,95.71
2022-10-01T02:32:15.006Z,95.70
2022-10-01T02:34:44.456Z,95.78
2022-10-01T02:37:13.136Z,95.56
2022-10-01T02:39:43.262Z,95.66
2022-10-01T02:42:17.345Z,95.58
2022-10-01T02:44:48.806Z,95.53
2022-10-01T02:47:21.189Z,94.89
2022-10-01T02:49:50.608Z,94.91
2022-10-01T02:52:28.461Z,94.65
2022-10-01T02:54:59.672Z,94.97
2022-10-01T02:57:29.505Z,94.71
2022-10-01T03:00:00.454Z,94.27
2022-10-01T03:02:31.259Z,94.13
2022-10-01T03:04:59.056Z,92.59
2022-10-01T03:07:28.486Z,92.22
2022-10-01T03:09:56.504Z,91.30
2022-10-01T03:12:25.126Z,89.96
2022-10-01T03:14:53.618Z,89.71
2022-10-01T03:17:22.830Z,88.86
2022-10-01T03:19:50.603Z,88.18
2022-10-01T03:22:22.607Z,86.98
2022-10-01T03:24:50.585Z,87.14
2022-10-01T03:27:18.573Z,86.67
2022-10-01T03:29:46.707Z,86.04
2022-10-01T03:32:15.291Z,86.46
2022-10-01T03:34:44.907Z,85.74
2022-10-01T03:37:12.755Z,84.30
2022-10-01T03:39:40.671Z,83.96
2022-10-01T03:42:08.444Z,84.02
2022-10-01T03:44:36.219Z,84.01
2022-10-01T03:47:04.027Z,85.46
2022-10-01T03:49:31.788Z,85.90
2022-10-01T03:52:01.235Z,86.82
2022-10-01T03:54:30.391Z,88.72
2022-10-01T03:56:58.484Z,87.61
2022-10-01T03:59:27.202Z,88.34
2022-10-01T04:01:55.487Z,88.23
2022-10-01T04:04:23.361Z,89.33
2022-10-01T04:06:51.077Z,89.75
2022-10-01T04:09:20.195Z,89.10
2022-10-01T04:11:48.177Z,89.93
2022-10-01T04:14:15.947Z,90.17
2022-10-01T04:16:44.163Z,90.67
2022-10-01T04:19:11.986Z,91.09
2022-10-01T04:21:40.142Z,91.94
2022-10-01T04:24:07.883Z,92.29
2022-10-01T04:26:37.150Z,92.90
2022-10-01T04:29:04.965Z,93.04
2022-10-01T04:31:35.333Z,93.27
2022-10-01T04:34:04.427Z,93.76
2022-10-01T04:36:32.298Z,94.18
2022-10-01T04:39:02.422Z,94.63
2022-10-01T04:41:31.760Z,95.26
2022-10-01T04:44:01.410Z,95.77
2022-10-01T04:46:30.054Z,95.04
2022-10-01T04:48:58.070Z,95.21
2022-10-01T04:51:25.884Z,95.74
2022-10-01T04:53:53.708Z,95.29
2022-10-01T04:56:21.456Z,95.93
2022-10-01T04:58:49.213Z,96.53
2022-10-01T05:01:18.347Z,96.26
2022-10-01T05:03:47.338Z,96.07
2022-10-01T05:06:15.105Z,96.22
2022-10-01T05:08:42.825Z,96.88
2022-10-01T05:11:10.651Z,96.29
2022-10-01T05:13:38.360Z,97.02
2022-10-01T05:16:06.406Z,96.55
2022-10-01T05:18:35.561Z,97.15
2022-10-01T05:21:06.476Z,97.22
2022-10-01T05:23:34.368Z,97.23
2022-10-01T05:26:04.126Z,96.69
2022-10-01T05:28:32.132Z,97.03
2022-10-01T05:31:00.474Z,96.62
2022-10-01T05:33:28.262Z,96.75
2022-10-01T05:35:57.444Z,97.23
2022-10-01T05:38:25.285Z,97.28
2022-10-01T05:40:53.050Z,98.09
2022-10-01T05:43:20.809Z,96.77
2022-10-01T05:45:49.835Z,96.95
2022-10-01T05:48:17.723Z,97.31
2022-10-01T05:50:46.532Z,97.43
2022-10-01T05:53:16.019Z,97.88
2022-10-01T05:55:44.058Z,97.96
2022-10-01T05:58:13.837Z,97.54
2022-10-01T06:00:42.925Z,96.92
2022-10-01T06:03:12.770Z,97.22
2022-10-01T06:05:40.794Z,97.49
2022-10-01T06:08:09.660Z,97.52
2022-10-01T06:10:39.453Z,97.68
2022-10-01T06:13:07.713Z,97.91
2022-10-01T06:15:38.306Z,98.06
2022-10-01T06:18:07.370Z,97.44
2022-10-01T06:20:35.752Z,97.44
2022-10-01T06:23:05.743Z,97.63
2022-10-01T06:25:34.962Z,97.49
2022-10-01T06:28:05.841Z,97.89
2022-10-01T06:30:36.571Z,97.27
2022-10-01T06:33:06.692Z,97.03
2022-10-01T06:35:36.645Z,97.06
2022-10-01T06:38:04.726Z,97.58
2022-10-01T06:40:33.144Z,97.18
2022-10-01T06:43:00.846Z,97.21
2022-10-01T06:45:31.842Z,97.14
2022-10-01T06:48:02.528Z,97.61
2022-10-01T06:50:31.676Z,97.27
2022-10-01T06:53:02.654Z,97.20
2022-10-01T06:55:32.090Z,97.40
2022-10-01T06:58:01.065Z,97.77
2022-10-01T07:00:32.230Z,98.33
2022-10-01T07:03:00.691Z,97.91
2022-10-01T07:05:29.002Z,97.33
2022-10-01T07:07:56.766Z,96.95
2022-10-01T07:10:25.422Z,97.36
2022-10-01T07:12:53.282Z,97.19
2022-10-01T07:15:23.863Z,97.66
2022-10-01T07:17:53.482Z,97.67
2022-10-01T07:20:21.986Z,97.68
2022-10-01T07:22:50.677Z,97.40
2022-10-01T07:25:18.488Z,97.75
2022-10-01T07:27:46.271Z,97.32
2022-10-01T07:30:14.076Z,97.31
2022-10-01T07:32:44.824Z,97.16
2022-10-01T07:35:14.419Z,97.89
2022-10-01T07:37:42.388Z,97.10
2022-10-01T07:40:10.913Z,97.44
2022-10-01T07:42:39.343Z,97.68
2022-10-01T07:45:08.627Z,97.39
2022-10-01T07:47:36.427Z,97.22
2022-10-01T07:50:04.684Z,97.12
2022-10-01T07:52:33.926Z,97.54
2022-10-01T07:55:01.671Z,97.73
2022-10-01T07:57:29.673Z,97.40
2022-10-01T07:59:57.370Z,97.13
2022-10-01T08:02:25.117Z,97.92
2022-10-01T08:05:10.416Z,97.49
2022-10-01T08:07:39.459Z,97.72
2022-10-01T08:10:07.686Z,98.28
2022-10-01T08:12:35.671Z,98.21
2022-10-01T08:15:03.706Z,98.06
2022-10-01T08:17:31.611Z,97.80
2022-10-01T08:19:59.379Z,97.77
2022-10-01T08:22:27.099Z,98.14
2022-10-01T08:24:56.262Z,98.46
2022-10-01T08:27:24.944Z,97.64
2022-10-01T08:29:53.382Z,96.98
2022-10-01T08:32:22.064Z,97.40
2022-10-01T08:34:53.321Z,97.75
2022-10-01T08:37:27.114Z,98.20
2022-10-01T08:39:56.403Z,97.74
2022-10-01T08:42:48.599Z,98.16
2022-10-01T08:45:21.285Z,97.56
2022-10-01T08:47:55.818Z,97.66
2022-10-01T08:50:33.787Z,97.21
2022-10-01T08:53:05.890Z,97.85
2022-10-01T08:55:37.762Z,97.87
2022-10-01T08:58:11.025Z,97.63
2022-10-01T09:00:42.994Z,97.72
2022-10-01T09:03:14.426Z,98.17
2022-10-01T09:05:53.431Z,97.84
2022-10-01T09:08:43.635Z,97.92
2022-10-01T09:11:23.845Z,97.50
2022-10-01T09:14:21.665Z,97.61
2022-10-01T09:17:00.825Z,97.52
2022-10-01T09:19:54.099Z,97.81
2022-10-01T09:22:29.758Z,97.06
2022-10-01T09:25:04.672Z,97.41
2022-10-01T09:27:35.208Z,97.82
2022-10-01T09:30:13.870Z,97.88
2022-10-01T09:32:46.040Z,97.56
2022-10-01T09:35:25.130Z,97.69
2022-10-01T09:37:57.554Z,97.26
2022-10-01T09:40:33.693Z,97.65
2022-10-01T09:43:03.485Z,97.52
2022-10-01T09:45:31.387Z,97.37
2022-10-01T09:48:05.560Z,97.94
2022-10-01T09:50:41.029Z,98.11
2022-10-01T09:53:16.920Z,98.03
2022-10-01T09:55:48.880Z,98.29
2022-10-01T09:58:21.848Z,96.66
2022-10-01T10:00:51.520Z,96.55
2022-10-01T10:03:24.697Z,96.26
2022-10-01T10:05:52.867Z,96.31
2022-10-01T10:08:27.355Z,96.42
2022-10-01T10:11:00.367Z,95.24
2022-10-01T10:13:35.008Z,96.67
2022-10-01T10:16:10.838Z,95.81
2022-10-01T10:18:41.090Z,95.49
2022-10-01T10:21:19.417Z,95.12
2022-10-01T10:23:50.240Z,95.80
2022-10-01T10:26:24.311Z,95.65
2022-10-01T10:28:53.485Z,96.52
2022-10-01T10:31:24.153Z,95.70
2022-10-01T10:33:57.380Z,95.97
2022-10-01T10:36:30.215Z,96.31
2022-10-01T10:38:59.913Z,96.44
2022-10-01T10:41:30.557Z,96.38
2022-10-01T10:44:03.643Z,95.54
2022-10-01T10:46:34.169Z,95.22
2022-10-01T10:49:07.007Z,94.73
2022-10-01T10:51:53.849Z,93.86
2022-10-01T10:54:29.176Z,94.98
2022-10-01T10:57:02.220Z,94.58
2022-10-01T10:59:33.286Z,94.95
2022-10-01T11:02:03.362Z,94.28
2022-10-01T11:04:40.789Z,93.62
2022-10-01T11:07:09.898Z,93.17
2022-10-01T11:09:53.490Z,91.56
2022-10-01T11:12:35.307Z,91.49
2022-10-01T11:15:17.689Z,92.65
2022-10-01T11:18:02.388Z,90.95
2022-10-01T11:20:39.898Z,91.87
2022-10-01T11:23:27.512Z,91.65
2022-10-01T11:26:09.960Z,92.14
2022-10-01T11:28:48.858Z,92.03
2022-10-01T11:31:27.742Z,91.94
2022-10-01T11:34:10.247Z,92.59
2022-10-01T11:36:43.799Z,92.90
2022-10-01T11:39:16.458Z,93.06
2022-10-01T11:41:48.074Z,93.29
2022-10-01T11:44:22.073Z,93.11
2022-10-01T11:46:59.054Z,93.07
2022-10-01T11:49:47.899Z,93.41
2022-10-01T11:52:32.575Z,92.09
2022-10-01T11:55:21.811Z,91.39
2022-10-01T11:58:12.186Z,90.75
2022-10-01T12:00:42.111Z,88.81
2022-10-01T12:03:19.047Z,89.34
2022-10-01T12:05:47.613Z,88.83
2022-10-01T12:08:24.182Z,90.21
2022-10-01T12:11:01.866Z,88.99
2022-10-01T12:13:34.049Z,89.32
2022-10-01T12:16:07.868Z,88.99
2022-10-01T12:18:47.882Z,89.64
2022-10-01T12:21:24.037Z,89.12
2022-10-01T12:23:56.696Z,88.56
2022-10-01T12:26:34.798Z,87.98
2022-10-01T12:29:10.499Z,88.55
2022-10-01T12:31:46.644Z,89.56
2022-10-01T12:34:23.372Z,87.20
2022-10-01T12:37:07.462Z,86.79
2022-10-01T12:39:49.475Z,87.50
2022-10-01T12:42:48.636Z,87.20
2022-10-01T12:45:28.906Z,87.75
2022-10-01T12:48:05.608Z,87.43
2022-10-01T12:50:44.966Z,87.58
2022-10-01T12:53:24.658Z,87.74
2022-10-01T12:56:13.120Z,89.05
2022-10-01T12:59:06.208Z,89.73
2022-10-01T13:01:46.819Z,90.08
2022-10-01T13:04:36.411Z,87.41
2022-10-01T13:07:28.138Z,87.86
2022-10-01T13:10:04.796Z,87.96
2022-10-01T13:12:46.290Z,87.86
2022-10-01T13:15:22.300Z,87.15
2022-10-01T13:17:55.879Z,84.80
2022-10-01T13:20:30.251Z,83.93
2022-10-01T13:23:06.334Z,85.15
2022-10-01T13:25:42.394Z,84.96
2022-10-01T13:28:17.519Z,85.88
2022-10-01T13:31:00.461Z,84.55
2022-10-01T13:33:32.066Z,83.86
2022-10-01T13:36:01.387Z,83.04
2022-10-01T13:38:43.806Z,82.12
2022-10-01T13:41:21.480Z,82.89
2022-10-01T13:43:56.702Z,83.04
2022-10-01T13:46:28.419Z,83.16
2022-10-01T13:49:07.116Z,82.55
2022-10-01T13:51:37.423Z,81.51
2022-10-01T13:54:15.840Z,81.89
2022-10-01T13:56:46.386Z,81.46
2022-10-01T13:59:32.183Z,81.88
2022-10-01T14:02:00.864Z,81.59
2022-10-01T14:04:37.699Z,81.57
2022-10-01T14:07:15.623Z,81.37
2022-10-01T14:09:48.548Z,80.87
2022-10-01T14:12:39.472Z,80.34
2022-10-01T14:15:34.310Z,81.13
2022-10-01T14:18:06.958Z,81.31
2022-10-01T14:20:50.773Z,80.98
2022-10-01T14:23:26.898Z,81.28
2022-10-01T14:26:03.302Z,81.61
2022-10-01T14:28:44.460Z,82.16
2022-10-01T14:31:19.970Z,79.87
2022-10-01T14:34:08.374Z,79.88
2022-10-01T14:36:42.409Z,78.73
2022-10-01T14:39:16.712Z,77.96
2022-10-01T14:41:47.122Z,77.43
2022-10-01T14:44:25.086Z,76.78
2022-10-01T14:46:54.867Z,76.60
2022-10-01T14:49:26.507Z,77.47
2022-10-01T14:51:59.983Z,76.90
2022-10-01T14:54:29.840Z,78.09
2022-10-01T14:56:59.667Z,78.72
2022-10-01T14:59:33.990Z,78.92
2022-10-01T15:02:04.102Z,77.77
2022-10-01T15:04:32.222Z,75.61
2022-10-01T15:07:14.618Z,71.45
2022-10-01T15:09:43.195Z,68.29
2022-10-01T15:12:14.069Z,68.83
2022-10-01T15:14:43.709Z,67.03
2022-10-01T15:17:20.270Z,70.25
2022-10-01T15:19:52.937Z,73.19
2022-10-01T15:22:25.203Z,75.43
2022-10-01T15:24:57.241Z,76.55
2022-10-01T15:27:27.293Z,77.13
2022-10-01T15:29:59.068Z,77.37
2022-10-01T15:32:29.152Z,77.71
2022-10-01T15:35:02.294Z,78.48
2022-10-01T15:37:34.648Z,79.11
2022-10-01T15:40:05.316Z,79.92
2022-10-01T15:42:36.995Z,79.71
2022-10-01T15:45:26.083Z,79.31
2022-10-01T15:47:57.047Z,79.50
2022-10-01T15:50:28.329Z,80.49
2022-10-01T15:53:03.603Z,80.87
2022-10-01T15:55:37.193Z,80.64
2022-10-01T15:58:14.121Z,80.50
2022-10-01T16:00:56.793Z,80.16
2022-10-01T16:03:29.736Z,80.12
2022-10-01T16:06:00.085Z,79.44
2022-10-01T16:08:34.209Z,79.50
2022-10-01T16:11:20.199Z,79.85
2022-10-01T16:13:50.595Z,79.89
2022-10-01T16:16:23.184Z,79.96
2022-10-01T16:18:56.161Z,79.88
2022-10-01T16:21:24.589Z,80.08
2022-10-01T16:23:53.334Z,80.49
2022-10-01T16:26:37.233Z,80.45
2022-10-01T16:29:19.633Z,81.23
2022-10-01T16:31:47.780Z,81.85
2022-10-01T16:34:17.565Z,81.61
2022-10-01T16:36:46.351Z,82.48
2022-10-01T16:39:15.364Z,82.25
2022-10-01T16:41:45.290Z,83.15
2022-10-01T16:44:15.133Z,83.83
2022-10-01T16:46:43.279Z,83.94
2022-10-01T16:49:14.991Z,84.29
2022-10-01T16:51:43.760Z,84.41
2022-10-01T16:54:20.378Z,84.65
2022-10-01T16:56:48.704Z,84.45
2022-10-01T16:59:18.184Z,84.61
2022-10-01T17:01:46.453Z,85.11
2022-10-01T17:04:16.741Z,85.13
2022-10-01T17:06:47.076Z,84.74
2022-10-01T17:09:15.294Z,84.85
2022-10-01T17:11:43.766Z,85.15
2022-10-01T17:14:18.616Z,85.75
2022-10-01T17:16:48.347Z,85.92
2022-10-01T17:19:16.270Z,85.98
2022-10-01T17:21:44.107Z,86.59
2022-10-01T17:24:12.067Z,87.00
2022-10-01T17:26:41.576Z,87.13
2022-10-01T17:29:10.152Z,87.42
2022-10-01T17:31:41.373Z,87.98
2022-10-01T17:34:09.435Z,88.25
2022-10-01T17:36:39.359Z,88.10
2022-10-01T17:39:07.169Z,88.50
2022-10-01T17:41:35.245Z,88.40
2022-10-01T17:44:03.036Z,88.97
2022-10-01T17:46:31.727Z,89.11
2022-10-01T17:49:00.896Z,88.87
2022-10-01T17:51:28.664Z,88.85
2022-10-01T17:53:56.723Z,89.06
2022-10-01T17:56:24.622Z,89.07
2022-10-01T17:58:54.869Z,89.12
2022-10-01T18:01:22.982Z,89.23
2022-10-01T18:03:54.371Z,89.10
2022-10-01T18:06:24.402Z,88.89
2022-10-01T18:08:56.515Z,89.15
2022-10-01T18:11:26.794Z,88.97
2022-10-01T18:13:54.559Z,89.02
2022-10-01T18:16:23.156Z,88.88
2022-10-01T18:21:44.970Z,88.91
2022-10-01T18:24:12.863Z,88.82
2022-10-01T18:26:40.737Z,88.92
2022-10-01T18:29:08.774Z,89.04
2022-10-01T18:31:38.348Z,89.19
2022-10-01T18:34:16.494Z,89.34
2022-10-01T18:36:54.622Z,89.44
2022-10-01T18:39:28.135Z,89.33
2022-10-01T18:41:59.365Z,89.32
2022-10-01T18:44:28.668Z,89.50
2022-10-01T18:47:13.639Z,89.00
2022-10-01T18:50:11.511Z,89.09
2022-10-01T18:52:52.786Z,88.88
2022-10-01T18:55:45.318Z,88.87
2022-10-01T18:58:35.691Z,88.21
2022-10-01T19:01:13.070Z,88.64
2022-10-01T19:04:00.761Z,88.28
2022-10-01T19:06:48.204Z,87.67
2022-10-01T19:09:45.744Z,87.66
2022-10-01T19:12:35.815Z,87.31
2022-10-01T19:15:17.377Z,87.41
2022-10-01T19:18:06.719Z,87.29
2022-10-01T19:20:53.764Z,87.21
2022-10-01T19:23:40.073Z,86.44
2022-10-01T19:26:15.914Z,86.46
2022-10-01T19:28:56.358Z,85.73
2022-10-01T19:31:34.317Z,85.98
2022-10-01T19:34:08.942Z,86.25
2022-10-01T19:36:41.659Z,85.31
2022-10-01T19:39:22.139Z,85.18
2022-10-01T19:41:56.539Z,85.36
2022-10-01T19:44:29.202Z,85.16
2022-10-01T19:47:06.960Z,85.76
2022-10-01T19:49:38.402Z,85.12
2022-10-01T19:52:13.589Z,85.50
2022-10-01T19:54:46.200Z,85.73
2022-10-01T19:57:24.051Z,86.03
2022-10-01T19:59:57.181Z,86.09
2022-10-01T20:02:35.612Z,86.44
2022-10-01T20:09:29.074Z,86.64
2022-10-01T20:12:06.998Z,86.60
2022-10-01T20:15:05.351Z,86.60
2022-10-01T20:17:44.532Z,87.01
2022-10-01T20:20:18.732Z,87.46
2022-10-01T20:23:02.520Z,87.58
2022-10-01T20:25:41.037Z,88.31
2022-10-01T20:28:19.229Z,88.09
2022-10-01T20:30:58.950Z,88.05
2022-10-01T20:33:43.806Z,88.41
2022-10-01T20:36:18.381Z,88.19
2022-10-01T20:38:51.707Z,88.02
2022-10-01T20:41:24.635Z,88.29
2022-10-01T20:43:57.672Z,87.97
2022-10-01T20:46:34.485Z,87.68
2022-10-01T20:49:11.323Z,87.97
2022-10-01T20:51:46.913Z,88.25
2022-10-01T20:54:24.937Z,88.64
2022-10-01T20:57:03.583Z,87.38
2022-10-01T20:59:37.956Z,87.45
2022-10-01T21:02:24.791Z,87.29
2022-10-01T21:05:01.852Z,87.90
2022-10-01T21:07:37.451Z,87.62
2022-10-01T21:10:17.154Z,88.29
2022-10-01T21:12:54.002Z,88.21
2022-10-01T21:15:24.856Z,88.25
2022-10-01T21:18:06.665Z,88.60
2022-10-01T21:20:49.483Z,89.15
2022-10-01T21:23:46.663Z,89.08
2022-10-01T21:26:25.634Z,89.57
2022-10-01T21:29:09.009Z,89.65
2022-10-01T21:31:48.252Z,89.33
2022-10-01T21:34:28.330Z,89.65
2022-10-01T21:37:03.238Z,89.44
2022-10-01T21:39:34.176Z,89.35
2022-10-01T21:42:14.720Z,88.99
2022-10-01T21:45:09.933Z,89.12
2022-10-01T21:47:49.410Z,88.51
2022-10-01T21:50:35.448Z,88.51
2022-10-01T21:53:30.501Z,89.10
2022-10-01T21:56:13.984Z,89.16
2022-10-01T21:58:56.241Z,89.00
2022-10-01T22:01:35.355Z,90.18
2022-10-01T22:04:12.463Z,90.66
2022-10-01T22:06:46.540Z,91.25
2022-10-01T22:09:17.943Z,91.34
2022-10-01T22:11:48.847Z,91.59
2022-10-01T22:14:19.315Z,92.21
2022-10-01T22:16:52.997Z,92.25
2022-10-01T22:19:26.611Z,92.29
2022-10-01T22:22:00.441Z,92.02
2022-10-01T22:24:34.431Z,92.14
2022-10-01T22:27:10.490Z,92.59
2022-10-01T22:29:43.367Z,92.72
2022-10-01T22:32:16.224Z,93.16
2022-10-01T22:34:48.971Z,93.12
2022-10-01T22:37:23.976Z,92.91
2022-10-01T22:39:58.688Z,93.36
2022-10-01T22:42:33.468Z,93.56
2022-10-01T22:45:12.991Z,94.13
2022-10-01T22:47:56.834Z,94.38
2022-10-01T22:50:38.261Z,94.43
2022-10-01T22:53:23.556Z,94.47
2022-10-01T22:55:54.769Z,94.16
2022-10-01T22:58:42.465Z,94.25
2022-10-01T23:01:24.150Z,93.78
2022-10-01T23:04:07.133Z,93.69
2022-10-01T23:06:40.717Z,93.30
2022-10-01T23:09:15.265Z,93.27
2022-10-01T23:11:54.863Z,93.18
2022-10-01T23:14:40.099Z,93.47
2022-10-01T23:17:14.231Z,94.06
2022-10-01T23:19:51.982Z,94.10
2022-10-01T23:22:40.216Z,94.36
2022-10-01T23:25:18.766Z,94.39
2022-10-01T23:28:04.015Z,94.92
2022-10-01T23:30:38.714Z,95.38
2022-10-01T23:33:34.151Z,96.00
2022-10-01T23:36:09.849Z,96.02
2022-10-01T23:39:02.961Z,96.38
2022-10-01T23:41:39.397Z,97.00
2022-10-01T23:44:15.444Z,97.05
2022-10-01T23:46:46.422Z,97.57
2022-10-01T23:49:16.930Z,98.49
2022-10-01T23:51:50.553Z,99.16
2022-10-01T23:54:24.891Z,98.81
2022-10-01T23:56:57.881Z,99.00
2022-10-01T23:59:29.811Z,99.54
